createdAt,value
2023-01-20T00:01:27.196Z,13.70
2023-01-20T00:03:55.758Z,14.10
2023-01-20T00:06:23.732Z,15.45
2023-01-20T00:08:54.294Z,17.65
2023-01-20T00:11:21.549Z,16.30
2023-01-20T00:13:51.034Z,16.00
2023-01-20T00:16:17.567Z,14.68
2023-01-20T00:18:44.084Z,15.70
2023-01-20T00:21:12.731Z,15.43
2023-01-20T00:23:40.458Z,14.95
2023-01-20T00:26:12.643Z,14.90
2023-01-20T00:28:39.442Z,14.35
2023-01-20T00:31:20.875Z,13.68
2023-01-20T00:33:48.990Z,12.98
2023-01-20T00:36:17.368Z,13.68
2023-01-20T00:38:44.398Z,14.02
2023-01-20T00:41:11.475Z,11.75
2023-01-20T00:43:38.429Z,12.07
2023-01-20T00:46:05.626Z,11.10
2023-01-20T00:48:32.808Z,11.27
2023-01-20T00:51:02.014Z,11.32
2023-01-20T00:53:29.025Z,12.77
2023-01-20T00:55:56.156Z,12.65
2023-01-20T00:58:22.911Z,12.98
2023-01-20T01:00:51.166Z,12.55
2023-01-20T01:03:18.000Z,12.65
2023-01-20T01:05:45.467Z,11.82
2023-01-20T01:08:12.180Z,10.68
2023-01-20T01:10:38.964Z,11.57
2023-01-20T01:13:05.922Z,10.52
2023-01-20T01:15:32.522Z,11.25
2023-01-20T01:17:59.853Z,11.68
2023-01-20T01:20:27.199Z,11.75
2023-01-20T01:22:53.753Z,12.23
2023-01-20T01:25:20.555Z,12.25
2023-01-20T01:27:47.064Z,11.65
2023-01-20T01:30:13.596Z,11.50
2023-01-20T01:32:40.429Z,11.45
2023-01-20T01:35:07.087Z,10.63
2023-01-20T01:37:33.547Z,10.40
2023-01-20T01:40:00.016Z,10.85
2023-01-20T01:42:26.841Z,10.55
2023-01-20T01:45:12.082Z,10.38
2023-01-20T01:47:53.295Z,10.95
2023-01-20T01:50:26.222Z,10.45
2023-01-20T01:52:55.549Z,10.63
2023-01-20T01:55:30.471Z,10.88
2023-01-20T01:57:59.762Z,11.55
2023-01-20T02:00:26.763Z,10.77
2023-01-20T02:02:54.699Z,11.20
2023-01-20T02:05:25.608Z,10.95
2023-01-20T02:07:52.393Z,10.93
2023-01-20T02:10:21.336Z,11.32
2023-01-20T02:12:51.247Z,11.50
2023-01-20T02:15:22.981Z,11.60
2023-01-20T02:18:25.086Z,11.38
2023-01-20T02:21:12.879Z,12.13
2023-01-20T02:23:58.288Z,11.32
2023-01-20T02:26:33.979Z,12.70
2023-01-20T02:29:03.500Z,12.07
2023-01-20T02:31:43.733Z,12.27
2023-01-20T02:34:41.191Z,12.75
2023-01-20T02:37:15.983Z,12.27
2023-01-20T02:39:55.937Z,12.75
2023-01-20T02:42:30.182Z,11.25
2023-01-20T02:45:08.930Z,12.40
2023-01-20T02:47:43.284Z,11.25
2023-01-20T02:50:23.888Z,11.95
2023-01-20T02:52:54.277Z,10.52
2023-01-20T02:55:31.627Z,11.88
2023-01-20T02:58:06.953Z,11.48
2023-01-20T03:00:40.258Z,11.55
2023-01-20T03:03:12.119Z,11.88
2023-01-20T03:05:45.851Z,11.95
2023-01-20T03:08:14.908Z,11.73
2023-01-20T03:10:42.888Z,12.18
2023-01-20T03:13:32.559Z,12.05
2023-01-20T03:16:03.153Z,12.90
2023-01-20T03:18:32.296Z,11.52
2023-01-20T03:21:03.325Z,12.50
2023-01-20T03:23:34.124Z,13.20
2023-01-20T03:26:07.078Z,11.23
2023-01-20T03:28:36.187Z,11.98
2023-01-20T03:31:13.135Z,11.75
2023-01-20T03:33:39.728Z,11.65
2023-01-20T03:36:06.807Z,12.27
2023-01-20T03:38:33.443Z,11.05
2023-01-20T03:41:04.470Z,11.68
2023-01-20T03:43:42.771Z,11.60
2023-01-20T03:46:19.880Z,12.02
2023-01-20T03:48:59.033Z,11.52
2023-01-20T03:51:34.617Z,11.80
2023-01-20T03:54:11.143Z,11.93
2023-01-20T03:56:51.330Z,11.80
2023-01-20T03:59:22.694Z,12.77
2023-01-20T04:01:49.893Z,12.18
2023-01-20T04:04:20.265Z,12.43
2023-01-20T04:06:49.631Z,12.57
2023-01-20T04:09:26.352Z,12.15
2023-01-20T04:11:55.320Z,12.80
2023-01-20T04:14:24.312Z,11.50
2023-01-20T04:16:56.916Z,11.80
2023-01-20T04:19:24.917Z,10.93
2023-01-20T04:22:05.043Z,10.75
2023-01-20T04:24:42.307Z,11.48
2023-01-20T04:27:09.027Z,9.50
2023-01-20T04:29:35.588Z,11.13
2023-01-20T04:32:05.008Z,10.02
2023-01-20T04:34:31.498Z,11.43
2023-01-20T04:36:58.063Z,10.70
2023-01-20T04:39:24.616Z,11.88
2023-01-20T04:41:51.240Z,11.38
2023-01-20T04:44:17.789Z,13.02
2023-01-20T04:46:45.412Z,13.00
2023-01-20T04:49:11.943Z,12.20
2023-01-20T04:51:38.467Z,13.32
2023-01-20T04:54:05.266Z,13.15
2023-01-20T04:56:31.801Z,13.18
2023-01-20T04:59:01.122Z,13.77
2023-01-20T05:01:27.698Z,13.77
2023-01-20T05:03:59.165Z,13.55
2023-01-20T05:06:25.705Z,12.25
2023-01-20T05:08:52.243Z,12.40
2023-01-20T05:11:18.777Z,12.68
2023-01-20T05:13:45.393Z,12.77
2023-01-20T05:16:12.607Z,12.88
2023-01-20T05:18:39.322Z,12.82
2023-01-20T05:21:08.703Z,13.13
2023-01-20T05:23:35.583Z,13.63
2023-01-20T05:26:02.129Z,15.23
2023-01-20T05:28:28.603Z,15.75
2023-01-20T05:30:55.191Z,15.15
2023-01-20T05:33:21.893Z,14.18
2023-01-20T05:35:48.423Z,12.95
2023-01-20T05:38:14.948Z,11.82
2023-01-20T05:40:41.471Z,10.93
2023-01-20T05:43:07.943Z,11.23
2023-01-20T05:45:34.435Z,10.25
2023-01-20T05:48:01.197Z,10.63
2023-01-20T05:50:30.813Z,12.45
2023-01-20T05:52:57.324Z,11.32
2023-01-20T05:55:23.843Z,10.50
2023-01-20T05:57:50.398Z,10.23
2023-01-20T06:00:19.472Z,9.80
2023-01-20T06:02:46.161Z,11.93
2023-01-20T06:05:13.137Z,9.95
2023-01-20T06:07:42.150Z,10.85
2023-01-20T06:10:11.475Z,10.32
2023-01-20T06:12:38.319Z,10.18
2023-01-20T06:15:05.376Z,9.80
2023-01-20T06:17:31.912Z,9.75
2023-01-20T06:20:00.696Z,9.68
2023-01-20T06:22:28.098Z,9.70
2023-01-20T06:24:54.679Z,9.60
2023-01-20T06:27:21.482Z,9.80
2023-01-20T06:29:47.939Z,9.75
2023-01-20T06:32:14.460Z,10.20
2023-01-20T06:34:43.233Z,10.05
2023-01-20T06:37:09.738Z,10.02
2023-01-20T06:39:36.230Z,10.43
2023-01-20T06:42:02.689Z,9.98
2023-01-20T06:44:29.359Z,11.57
2023-01-20T06:46:57.947Z,11.93
2023-01-20T06:49:24.439Z,11.75
2023-01-20T06:51:50.989Z,11.73
2023-01-20T06:54:17.968Z,12.30
2023-01-20T06:56:44.509Z,12.15
2023-01-20T06:59:12.095Z,12.35
2023-01-20T07:01:39.694Z,12.70
2023-01-20T07:04:12.861Z,12.57
2023-01-20T07:06:41.472Z,12.40
2023-01-20T07:09:10.577Z,12.93
2023-01-20T07:11:39.665Z,12.73
2023-01-20T07:14:06.877Z,13.35
2023-01-20T07:16:37.069Z,14.20
2023-01-20T07:19:04.363Z,14.05
2023-01-20T07:21:30.886Z,14.00
2023-01-20T07:24:03.156Z,14.88
2023-01-20T07:26:32.196Z,14.77
2023-01-20T07:28:59.523Z,15.38
2023-01-20T07:31:31.324Z,14.73
2023-01-20T07:33:58.209Z,14.88
2023-01-20T07:36:25.026Z,14.73
2023-01-20T07:38:52.910Z,14.95
2023-01-20T07:41:20.363Z,15.23
2023-01-20T07:43:51.777Z,16.48
2023-01-20T07:46:19.145Z,15.98
2023-01-20T07:48:46.051Z,15.35
2023-01-20T07:51:15.420Z,16.25
2023-01-20T07:53:47.095Z,14.98
2023-01-20T07:56:25.098Z,15.38
2023-01-20T07:58:53.670Z,16.13
2023-01-20T08:01:29.748Z,16.70
2023-01-20T08:03:57.464Z,16.63
2023-01-20T08:06:28.481Z,16.58
2023-01-20T08:08:57.807Z,16.55
2023-01-20T08:11:27.559Z,16.10
2023-01-20T08:13:54.068Z,17.02
2023-01-20T08:16:20.804Z,16.33
2023-01-20T08:18:47.833Z,14.65
2023-01-20T08:21:20.289Z,15.95
2023-01-20T08:23:46.787Z,15.13
2023-01-20T08:26:13.829Z,15.25
2023-01-20T08:28:40.467Z,13.38
2023-01-20T08:31:09.477Z,14.90
2023-01-20T08:33:36.578Z,14.23
2023-01-20T08:36:32.680Z,15.07
2023-01-20T08:39:02.486Z,13.82
2023-01-20T08:41:35.494Z,14.02
2023-01-20T08:44:04.766Z,14.77
2023-01-20T08:46:32.190Z,14.32
2023-01-20T08:48:58.953Z,13.60
2023-01-20T08:51:28.960Z,13.43
2023-01-20T08:56:40.719Z,13.52
2023-01-20T08:59:07.403Z,13.70
2023-01-20T09:01:38.375Z,13.77
2023-01-20T09:04:07.181Z,13.77
2023-01-20T09:06:42.801Z,13.00
2023-01-20T09:09:12.727Z,14.27
2023-01-20T09:11:40.326Z,14.43
2023-01-20T09:14:06.950Z,12.93
2023-01-20T09:16:33.457Z,13.00
2023-01-20T09:18:59.985Z,13.13
2023-01-20T09:21:26.526Z,13.23
2023-01-20T09:23:53.095Z,17.58
2023-01-20T09:26:34.423Z,17.92
2023-01-20T09:29:09.218Z,16.63
2023-01-20T09:31:44.461Z,15.85
2023-01-20T09:34:19.434Z,15.15
2023-01-20T09:36:49.335Z,15.73
2023-01-20T09:39:35.115Z,14.80
2023-01-20T09:42:34.533Z,14.50
2023-01-20T09:45:25.143Z,14.73
2023-01-20T09:48:01.046Z,15.77
2023-01-20T09:51:08.225Z,14.15
2023-01-20T09:54:00.834Z,15.18
2023-01-20T09:56:29.047Z,14.00
2023-01-20T09:59:08.068Z,15.93
2023-01-20T10:01:48.334Z,14.95
2023-01-20T10:04:29.792Z,13.88
2023-01-20T10:07:07.561Z,14.70
2023-01-20T10:09:38.273Z,13.80
2023-01-20T10:12:18.493Z,15.55
2023-01-20T10:14:49.082Z,14.27
2023-01-20T10:17:26.210Z,13.15
2023-01-20T10:20:07.893Z,13.27
2023-01-20T10:22:45.096Z,13.05
2023-01-20T10:25:58.163Z,13.73
2023-01-20T10:28:29.751Z,12.57
2023-01-20T10:30:58.563Z,12.93
2023-01-20T10:33:33.703Z,14.15
2023-01-20T10:36:00.836Z,13.27
2023-01-20T10:38:52.596Z,12.25
2023-01-20T10:41:26.975Z,12.13
2023-01-20T10:43:53.956Z,13.73
2023-01-20T10:46:29.171Z,15.40
2023-01-20T10:49:33.297Z,13.50
2023-01-20T10:52:02.758Z,10.48
2023-01-20T10:54:45.204Z,10.48
2023-01-20T10:57:14.336Z,10.70
2023-01-20T10:59:52.326Z,10.40
2023-01-20T11:02:27.761Z,10.77
2023-01-20T11:05:29.499Z,10.07
2023-01-20T11:07:58.354Z,10.23
2023-01-20T11:10:27.848Z,10.35
2023-01-20T11:12:59.599Z,10.25
2023-01-20T11:15:44.929Z,10.07
2023-01-20T11:18:14.323Z,9.73
2023-01-20T11:20:56.357Z,9.77
2023-01-20T11:23:39.200Z,9.52
2023-01-20T11:26:20.436Z,10.30
2023-01-20T11:28:54.407Z,10.35
2023-01-20T11:31:32.987Z,10.57
2023-01-20T11:34:02.327Z,11.60
2023-01-20T11:36:29.460Z,12.00
2023-01-20T11:38:57.163Z,13.60
2023-01-20T11:41:25.625Z,11.25
2023-01-20T11:44:00.320Z,12.52
2023-01-20T11:46:36.047Z,11.85
2023-01-20T11:49:13.846Z,13.10
2023-01-20T11:51:50.833Z,12.10
2023-01-20T11:54:26.413Z,11.98
2023-01-20T11:57:17.252Z,10.73
2023-01-20T11:59:49.482Z,10.80
2023-01-20T12:02:24.722Z,11.07
2023-01-20T12:05:17.012Z,11.30
2023-01-20T12:07:48.890Z,10.57
2023-01-20T12:10:32.226Z,10.48
2023-01-20T12:13:18.332Z,10.20
2023-01-20T12:15:53.843Z,9.55
2023-01-20T12:19:01.325Z,9.32
2023-01-20T12:21:37.204Z,8.25
2023-01-20T12:24:20.923Z,9.10
2023-01-20T12:26:48.297Z,8.82
2023-01-20T12:29:27.320Z,7.85
2023-01-20T12:31:54.518Z,8.32
2023-01-20T12:34:27.931Z,8.07
2023-01-20T12:37:23.388Z,8.43
2023-01-20T12:39:52.800Z,8.38
2023-01-20T12:42:41.291Z,8.18
2023-01-20T12:45:38.802Z,8.05
2023-01-20T12:48:31.038Z,7.75
2023-01-20T12:51:35.759Z,8.82
2023-01-20T12:54:21.162Z,9.40
2023-01-20T12:57:12.089Z,8.93
2023-01-20T13:00:14.990Z,8.88
2023-01-20T13:03:18.360Z,9.63
2023-01-20T13:05:44.879Z,9.85
2023-01-20T13:08:43.730Z,9.60
2023-01-20T13:11:28.387Z,9.65
2023-01-20T13:14:21.210Z,9.70
2023-01-20T13:17:07.936Z,8.85
2023-01-20T13:19:39.004Z,9.57
2023-01-20T13:22:31.901Z,8.63
2023-01-20T13:25:04.713Z,8.98
2023-01-20T13:27:37.461Z,9.38
2023-01-20T13:30:06.808Z,9.38
2023-01-20T13:32:36.536Z,9.30
2023-01-20T13:35:18.370Z,9.13
2023-01-20T13:37:54.227Z,9.35
2023-01-20T13:40:33.231Z,9.43
2023-01-20T13:43:00.279Z,8.85
2023-01-20T13:45:27.854Z,9.30
2023-01-20T13:48:05.865Z,9.07
2023-01-20T13:50:32.393Z,15.68
2023-01-20T13:53:15.070Z,15.85
2023-01-20T13:55:41.606Z,10.57
2023-01-20T13:58:15.615Z,11.18
2023-01-20T14:00:42.731Z,11.38
2023-01-20T14:03:30.032Z,14.05
2023-01-20T14:06:21.224Z,12.05
2023-01-20T14:08:49.735Z,12.20
2023-01-20T14:11:24.294Z,14.20
2023-01-20T14:13:55.090Z,12.50
2023-01-20T14:16:26.132Z,13.07
2023-01-20T14:18:58.645Z,15.73
2023-01-20T14:21:30.146Z,15.13
2023-01-20T14:23:57.176Z,11.90
2023-01-20T14:26:26.717Z,12.52
2023-01-20T14:28:55.555Z,13.45
2023-01-20T14:31:45.985Z,13.02
2023-01-20T14:34:30.389Z,15.02
2023-01-20T14:37:03.651Z,13.07
2023-01-20T14:39:30.937Z,12.10
2023-01-20T14:42:01.457Z,13.38
2023-01-20T14:44:30.658Z,13.95
2023-01-20T14:47:02.233Z,16.15
2023-01-20T14:49:33.467Z,14.23
2023-01-20T14:52:00.955Z,14.05
2023-01-20T14:54:34.268Z,12.02
2023-01-20T14:57:17.997Z,18.92
2023-01-20T15:02:28.269Z,10.93
2023-01-20T15:04:55.775Z,14.60
2023-01-20T15:07:24.035Z,11.50
2023-01-20T15:09:58.151Z,12.73
2023-01-20T15:12:42.568Z,17.13
2023-01-20T15:15:12.133Z,10.50
2023-01-20T15:18:04.864Z,11.52
2023-01-20T15:20:33.497Z,11.43
2023-01-20T15:23:00.691Z,11.90
2023-01-20T15:25:28.609Z,11.65
2023-01-20T15:27:57.117Z,11.30
2023-01-20T15:30:27.582Z,12.60
2023-01-20T15:32:55.546Z,11.75
2023-01-20T15:35:26.022Z,13.25
2023-01-20T15:37:53.913Z,13.75
2023-01-20T15:40:24.934Z,12.55
2023-01-20T15:42:53.376Z,13.07
2023-01-20T15:45:22.333Z,13.25
2023-01-20T15:47:51.168Z,13.77
2023-01-20T15:50:22.154Z,13.68
2023-01-20T15:52:49.364Z,12.27
2023-01-20T15:55:17.618Z,13.52
2023-01-20T15:57:47.035Z,12.57
2023-01-20T16:00:22.686Z,12.57
2023-01-20T16:02:51.694Z,12.73
2023-01-20T16:05:18.293Z,12.93
2023-01-20T16:07:47.697Z,13.52
2023-01-20T16:10:19.595Z,14.15
2023-01-20T16:12:47.071Z,13.10
2023-01-20T16:15:19.221Z,14.10
2023-01-20T16:17:45.874Z,13.63
2023-01-20T16:20:19.098Z,14.55
2023-01-20T16:22:45.723Z,14.48
2023-01-20T16:25:12.397Z,18.13
2023-01-20T16:27:38.990Z,22.08
2023-01-20T16:30:06.204Z,17.77
2023-01-20T16:32:32.806Z,15.52
2023-01-20T16:34:59.382Z,14.50
2023-01-20T16:37:25.977Z,14.07
2023-01-20T16:39:52.603Z,12.82
2023-01-20T16:42:19.150Z,11.80
2023-01-20T16:44:45.699Z,10.95
2023-01-20T16:47:12.269Z,11.82
2023-01-20T16:49:38.972Z,11.35
2023-01-20T16:52:05.555Z,10.68
2023-01-20T16:54:32.083Z,10.85
2023-01-20T16:56:58.765Z,11.15
2023-01-20T16:59:26.007Z,10.68
2023-01-20T17:01:52.650Z,28.83
2023-01-20T17:04:19.269Z,10.57
2023-01-20T17:06:45.857Z,10.30
2023-01-20T17:09:12.475Z,10.60
2023-01-20T17:11:40.454Z,10.98
2023-01-20T17:14:09.656Z,10.95
2023-01-20T17:16:37.204Z,10.82
2023-01-20T17:19:05.179Z,11.57
2023-01-20T17:21:34.530Z,12.40
2023-01-20T17:24:04.091Z,12.23
2023-01-20T17:26:33.722Z,10.73
2023-01-20T17:29:02.964Z,12.05
2023-01-20T17:31:31.877Z,10.80
2023-01-20T17:34:00.815Z,11.68
2023-01-20T17:36:29.528Z,9.85
2023-01-20T17:38:57.539Z,10.95
2023-01-20T17:41:24.084Z,11.75
2023-01-20T17:43:51.004Z,11.77
2023-01-20T17:46:28.721Z,11.15
2023-01-20T17:49:02.110Z,11.50
2023-01-20T17:54:00.242Z,10.30
2023-01-20T17:56:31.075Z,10.50
2023-01-20T17:59:00.233Z,10.65
2023-01-20T18:01:29.014Z,10.45
2023-01-20T18:03:58.756Z,10.25
2023-01-20T18:06:26.831Z,10.52
2023-01-20T18:08:58.323Z,11.85
2023-01-20T18:11:29.227Z,11.55
2023-01-20T18:13:57.588Z,10.88
2023-01-20T18:16:28.077Z,11.23
2023-01-20T18:18:58.719Z,10.82
2023-01-20T18:21:28.905Z,10.63
2023-01-20T18:23:55.951Z,11.65
2023-01-20T18:26:25.091Z,13.23
2023-01-20T18:28:56.046Z,12.38
2023-01-20T18:31:24.667Z,12.98
2023-01-20T18:33:54.726Z,12.77
2023-01-20T18:36:27.129Z,12.85
2023-01-20T18:38:56.645Z,15.13
2023-01-20T18:41:24.973Z,18.10
2023-01-20T18:43:51.929Z,24.67
2023-01-20T18:46:18.835Z,20.73
2023-01-20T18:48:47.344Z,18.58
2023-01-20T18:51:16.105Z,19.48
2023-01-20T18:53:44.487Z,21.05
2023-01-20T18:56:13.810Z,20.67
2023-01-20T18:58:45.730Z,20.95
2023-01-20T19:01:14.864Z,22.55
2023-01-20T19:03:41.597Z,22.60
2023-01-20T19:06:13.000Z,21.27
2023-01-20T19:08:41.189Z,23.15
2023-01-20T19:11:15.215Z,24.67
2023-01-20T19:13:43.645Z,25.67
2023-01-20T19:16:12.761Z,25.50
2023-01-20T19:18:44.740Z,26.73
2023-01-20T19:21:14.849Z,26.13
2023-01-20T19:23:42.198Z,26.80
2023-01-20T19:26:11.275Z,26.90
2023-01-20T19:28:38.813Z,29.42
2023-01-20T19:31:11.222Z,29.25
2023-01-20T19:33:40.597Z,26.77
2023-01-20T19:36:11.257Z,28.77
2023-01-20T19:38:38.579Z,28.55
2023-01-20T19:41:10.947Z,27.65
2023-01-20T19:43:38.419Z,27.98
2023-01-20T19:46:16.025Z,28.85
2023-01-20T19:48:43.107Z,28.30
2023-01-20T19:51:15.049Z,28.50
2023-01-20T19:53:43.236Z,30.00
2023-01-20T19:56:16.376Z,29.58
2023-01-20T19:58:43.980Z,29.20
2023-01-20T20:01:13.247Z,30.20
2023-01-20T20:03:40.545Z,28.83
2023-01-20T20:06:21.211Z,29.60
2023-01-20T20:08:47.980Z,28.70
2023-01-20T20:11:15.187Z,28.70
2023-01-20T20:13:42.067Z,30.58
2023-01-20T20:16:09.099Z,29.67
2023-01-20T20:18:36.103Z,27.27
2023-01-20T20:21:05.026Z,27.75
2023-01-20T20:23:31.826Z,33.83
2023-01-20T20:26:00.599Z,39.47
2023-01-20T20:28:28.378Z,36.65
2023-01-20T20:31:05.092Z,49.72
2023-01-20T20:33:32.121Z,28.80
2023-01-20T20:35:58.763Z,28.40
2023-01-20T20:38:25.924Z,27.63
2023-01-20T20:40:58.814Z,31.35
2023-01-20T20:43:26.313Z,31.77
2023-01-20T20:45:53.249Z,30.83
2023-01-20T20:48:20.101Z,30.52
2023-01-20T20:50:46.844Z,29.58
2023-01-20T20:53:13.552Z,27.02
2023-01-20T20:55:41.657Z,26.63
2023-01-20T20:58:09.563Z,26.13
2023-01-20T21:00:37.188Z,26.95
2023-01-20T21:03:11.122Z,24.50
2023-01-20T21:05:37.893Z,26.13
2023-01-20T21:08:06.053Z,26.42
2023-01-20T21:10:34.845Z,25.25
2023-01-20T21:13:01.448Z,25.23
2023-01-20T21:15:30.573Z,25.42
2023-01-20T21:17:58.397Z,25.20
2023-01-20T21:20:25.283Z,26.63
2023-01-20T21:22:52.144Z,26.27
2023-01-20T21:25:18.687Z,26.95
2023-01-20T21:27:47.691Z,26.42
2023-01-20T21:30:14.757Z,25.75
2023-01-20T21:32:41.579Z,25.80
2023-01-20T21:35:10.887Z,25.40
2023-01-20T21:37:39.846Z,24.73
2023-01-20T21:40:07.037Z,25.25
2023-01-20T21:42:33.709Z,25.30
2023-01-20T21:45:00.326Z,25.15
2023-01-20T21:47:26.988Z,24.67
2023-01-20T21:50:14.980Z,24.70
2023-01-20T21:52:41.770Z,25.20
2023-01-20T21:55:16.354Z,24.98
2023-01-20T21:57:43.249Z,24.27
2023-01-20T22:00:11.060Z,24.48
2023-01-20T22:02:37.759Z,24.67
2023-01-20T22:05:04.639Z,24.63
2023-01-20T22:07:31.241Z,25.65
2023-01-20T22:09:58.369Z,25.17
2023-01-20T22:12:25.159Z,25.80
2023-01-20T22:14:51.792Z,26.10
2023-01-20T22:17:18.370Z,25.40
2023-01-20T22:19:45.597Z,26.08
2023-01-20T22:22:19.788Z,24.23
2023-01-20T22:24:48.531Z,25.50
2023-01-20T22:27:15.135Z,23.13
2023-01-20T22:29:41.755Z,24.90
2023-01-20T22:32:08.336Z,23.90
2023-01-20T22:34:35.180Z,23.90
2023-01-20T22:37:02.310Z,22.95
2023-01-20T22:39:28.952Z,22.38
2023-01-20T22:41:57.991Z,21.20
2023-01-20T22:44:24.666Z,21.40
2023-01-20T22:46:51.273Z,20.50
2023-01-20T22:49:18.395Z,19.98
2023-01-20T22:51:45.074Z,18.95
2023-01-20T22:54:11.845Z,20.13
2023-01-20T22:56:40.902Z,19.38
2023-01-20T22:59:07.719Z,18.95
2023-01-20T23:01:35.416Z,19.25
2023-01-20T23:04:04.829Z,19.27
2023-01-20T23:06:34.084Z,18.77
2023-01-20T23:09:02.558Z,28.23
2023-01-20T23:11:32.516Z,48.75
2023-01-20T23:14:00.407Z,68.43
2023-01-20T23:16:27.206Z,60.80
2023-01-20T23:18:53.928Z,43.88
2023-01-20T23:21:21.452Z,34.05
2023-01-20T23:23:54.408Z,31.58
2023-01-20T23:26:26.655Z,20.13
2023-01-20T23:28:55.204Z,19.63
2023-01-20T23:31:25.428Z,21.80
2023-01-20T23:33:54.346Z,19.10
2023-01-20T23:36:28.324Z,18.60
2023-01-20T23:38:55.984Z,19.10
2023-01-20T23:41:27.610Z,18.08
2023-01-20T23:43:54.313Z,17.00
2023-01-20T23:46:20.920Z,18.77
2023-01-20T23:48:47.835Z,17.38
2023-01-20T23:51:14.867Z,17.35
2023-01-20T23:53:41.793Z,18.23
2023-01-20T23:56:20.753Z,17.45
2023-01-20T23:58:47.842Z,17.83
